sensor_id;sensor_type;location;lat;lon;timestamp;P1;durP1;ratioP1;P2;durP2;ratioP2
19521;SDS011;9905;52.126;5.596;2024-01-30T00:01:07;21.13;;;19.58;;
19521;SDS011;9905;52.126;5.596;2024-01-30T00:03:34;21.25;;;19.45;;
19521;SDS011;9905;52.126;5.596;2024-01-30T00:06:00;21.67;;;19.95;;
19521;SDS011;9905;52.126;5.596;2024-01-30T00:08:29;21.83;;;20.15;;
19521;SDS011;9905;52.126;5.596;2024-01-30T00:10:57;20.52;;;18.95;;
19521;SDS011;9905;52.126;5.596;2024-01-30T00:13:24;20.73;;;18.92;;
19521;SDS011;9905;52.126;5.596;2024-01-30T00:15:50;21.88;;;20.15;;
19521;SDS011;9905;52.126;5.596;2024-01-30T00:18:17;21.85;;;20.25;;
19521;SDS011;9905;52.126;5.596;2024-01-30T00:20:44;22.05;;;20.25;;
19521;SDS011;9905;52.126;5.596;2024-01-30T00:23:11;21.40;;;19.85;;
19521;SDS011;9905;52.126;5.596;2024-01-30T00:25:38;21.90;;;20.10;;
19521;SDS011;9905;52.126;5.596;2024-01-30T00:28:06;21.63;;;20.00;;
19521;SDS011;9905;52.126;5.596;2024-01-30T00:30:33;22.25;;;20.42;;
19521;SDS011;9905;52.126;5.596;2024-01-30T00:32:59;20.92;;;19.42;;
19521;SDS011;9905;52.126;5.596;2024-01-30T00:35:26;21.05;;;19.23;;
19521;SDS011;9905;52.126;5.596;2024-01-30T00:37:54;21.90;;;20.25;;
19521;SDS011;9905;52.126;5.596;2024-01-30T00:40:21;20.83;;;19.13;;
19521;SDS011;9905;52.126;5.596;2024-01-30T00:42:47;20.27;;;18.67;;
19521;SDS011;9905;52.126;5.596;2024-01-30T00:45:16;20.95;;;19.33;;
19521;SDS011;9905;52.126;5.596;2024-01-30T00:47:43;20.17;;;18.45;;
19521;SDS011;9905;52.126;5.596;2024-01-30T00:50:10;20.48;;;18.67;;
19521;SDS011;9905;52.126;5.596;2024-01-30T00:52:37;21.50;;;20.08;;
19521;SDS011;9905;52.126;5.596;2024-01-30T00:55:06;21.30;;;19.48;;
19521;SDS011;9905;52.126;5.596;2024-01-30T00:57:33;19.20;;;17.80;;
19521;SDS011;9905;52.126;5.596;2024-01-30T01:00:00;21.02;;;19.42;;
19521;SDS011;9905;52.126;5.596;2024-01-30T01:02:28;20.00;;;18.48;;
19521;SDS011;9905;52.126;5.596;2024-01-30T01:04:55;19.05;;;17.55;;
19521;SDS011;9905;52.126;5.596;2024-01-30T01:07:22;19.65;;;18.02;;
19521;SDS011;9905;52.126;5.596;2024-01-30T01:09:48;18.63;;;17.35;;
19521;SDS011;9905;52.126;5.596;2024-01-30T01:12:15;20.92;;;18.95;;
19521;SDS011;9905;52.126;5.596;2024-01-30T01:14:42;20.30;;;18.80;;
19521;SDS011;9905;52.126;5.596;2024-01-30T01:17:08;20.05;;;18.55;;
19521;SDS011;9905;52.126;5.596;2024-01-30T01:19:37;19.42;;;17.95;;
19521;SDS011;9905;52.126;5.596;2024-01-30T01:22:03;20.00;;;18.30;;
19521;SDS011;9905;52.126;5.596;2024-01-30T01:24:30;19.77;;;18.58;;
19521;SDS011;9905;52.126;5.596;2024-01-30T01:26:57;19.88;;;18.27;;
19521;SDS011;9905;52.126;5.596;2024-01-30T01:29:24;19.90;;;18.20;;
19521;SDS011;9905;52.126;5.596;2024-01-30T01:31:54;19.17;;;17.75;;
19521;SDS011;9905;52.126;5.596;2024-01-30T01:34:21;19.33;;;17.95;;
19521;SDS011;9905;52.126;5.596;2024-01-30T01:36:50;18.83;;;17.55;;
19521;SDS011;9905;52.126;5.596;2024-01-30T01:39:20;19.48;;;17.88;;
19521;SDS011;9905;52.126;5.596;2024-01-30T01:41:48;21.27;;;19.65;;
19521;SDS011;9905;52.126;5.596;2024-01-30T01:44:14;21.70;;;20.23;;
19521;SDS011;9905;52.126;5.596;2024-01-30T01:46:41;20.33;;;18.83;;
19521;SDS011;9905;52.126;5.596;2024-01-30T01:49:08;18.92;;;17.52;;
19521;SDS011;9905;52.126;5.596;2024-01-30T01:51:36;19.27;;;17.85;;
19521;SDS011;9905;52.126;5.596;2024-01-30T01:54:07;20.95;;;19.40;;
19521;SDS011;9905;52.126;5.596;2024-01-30T01:56:35;20.60;;;19.30;;
19521;SDS011;9905;52.126;5.596;2024-01-30T01:59:04;19.40;;;18.10;;
19521;SDS011;9905;52.126;5.596;2024-01-30T02:01:33;19.55;;;18.25;;
19521;SDS011;9905;52.126;5.596;2024-01-30T02:04:00;19.40;;;18.10;;
19521;SDS011;9905;52.126;5.596;2024-01-30T02:06:27;20.02;;;18.27;;
19521;SDS011;9905;52.126;5.596;2024-01-30T02:08:54;20.83;;;18.92;;
19521;SDS011;9905;52.126;5.596;2024-01-30T02:11:23;19.08;;;17.90;;
19521;SDS011;9905;52.126;5.596;2024-01-30T02:13:50;19.73;;;18.42;;
19521;SDS011;9905;52.126;5.596;2024-01-30T02:16:17;19.77;;;18.20;;
19521;SDS011;9905;52.126;5.596;2024-01-30T02:18:43;19.98;;;18.70;;
19521;SDS011;9905;52.126;5.596;2024-01-30T02:21:14;19.77;;;18.40;;
19521;SDS011;9905;52.126;5.596;2024-01-30T02:23:42;19.98;;;18.38;;
19521;SDS011;9905;52.126;5.596;2024-01-30T02:26:10;19.70;;;18.08;;
19521;SDS011;9905;52.126;5.596;2024-01-30T02:28:37;18.25;;;16.95;;
19521;SDS011;9905;52.126;5.596;2024-01-30T02:31:04;18.65;;;17.17;;
19521;SDS011;9905;52.126;5.596;2024-01-30T02:33:31;18.65;;;17.35;;
19521;SDS011;9905;52.126;5.596;2024-01-30T02:35:58;18.98;;;17.60;;
19521;SDS011;9905;52.126;5.596;2024-01-30T02:38:26;20.20;;;18.60;;
19521;SDS011;9905;52.126;5.596;2024-01-30T02:40:53;19.85;;;18.05;;
19521;SDS011;9905;52.126;5.596;2024-01-30T02:43:21;20.75;;;19.25;;
19521;SDS011;9905;52.126;5.596;2024-01-30T02:45:48;19.00;;;17.50;;
19521;SDS011;9905;52.126;5.596;2024-01-30T02:48:14;20.13;;;18.58;;
19521;SDS011;9905;52.126;5.596;2024-01-30T02:50:41;19.60;;;18.13;;
19521;SDS011;9905;52.126;5.596;2024-01-30T02:53:08;20.10;;;18.67;;
19521;SDS011;9905;52.126;5.596;2024-01-30T02:55:36;19.20;;;17.95;;
19521;SDS011;9905;52.126;5.596;2024-01-30T02:58:03;18.20;;;16.92;;
19521;SDS011;9905;52.126;5.596;2024-01-30T03:00:30;17.80;;;16.23;;
19521;SDS011;9905;52.126;5.596;2024-01-30T03:02:57;18.55;;;17.15;;
19521;SDS011;9905;52.126;5.596;2024-01-30T03:05:23;17.23;;;15.93;;
19521;SDS011;9905;52.126;5.596;2024-01-30T03:07:50;17.92;;;16.52;;
19521;SDS011;9905;52.126;5.596;2024-01-30T03:10:17;19.48;;;17.83;;
19521;SDS011;9905;52.126;5.596;2024-01-30T03:12:45;17.92;;;16.63;;
19521;SDS011;9905;52.126;5.596;2024-01-30T03:15:11;17.63;;;16.30;;
19521;SDS011;9905;52.126;5.596;2024-01-30T03:17:38;18.90;;;17.52;;
19521;SDS011;9905;52.126;5.596;2024-01-30T03:20:05;18.42;;;17.10;;
19521;SDS011;9905;52.126;5.596;2024-01-30T03:22:33;18.50;;;17.10;;
19521;SDS011;9905;52.126;5.596;2024-01-30T03:25:00;18.27;;;17.00;;
19521;SDS011;9905;52.126;5.596;2024-01-30T03:27:26;18.95;;;17.75;;
19521;SDS011;9905;52.126;5.596;2024-01-30T03:29:55;18.63;;;17.15;;
19521;SDS011;9905;52.126;5.596;2024-01-30T03:32:22;17.55;;;16.25;;
19521;SDS011;9905;52.126;5.596;2024-01-30T03:34:48;19.00;;;17.58;;
19521;SDS011;9905;52.126;5.596;2024-01-30T03:37:15;17.73;;;16.58;;
19521;SDS011;9905;52.126;5.596;2024-01-30T03:39:42;18.30;;;16.70;;
19521;SDS011;9905;52.126;5.596;2024-01-30T03:42:08;18.52;;;17.00;;
19521;SDS011;9905;52.126;5.596;2024-01-30T03:44:35;18.50;;;17.10;;
19521;SDS011;9905;52.126;5.596;2024-01-30T03:47:03;17.58;;;16.27;;
19521;SDS011;9905;52.126;5.596;2024-01-30T03:49:30;17.60;;;16.50;;
19521;SDS011;9905;52.126;5.596;2024-01-30T03:51:57;17.50;;;16.13;;
19521;SDS011;9905;52.126;5.596;2024-01-30T03:54:23;17.17;;;16.05;;
19521;SDS011;9905;52.126;5.596;2024-01-30T03:56:50;18.17;;;16.60;;
19521;SDS011;9905;52.126;5.596;2024-01-30T03:59:17;18.08;;;16.70;;
19521;SDS011;9905;52.126;5.596;2024-01-30T04:01:49;18.10;;;16.75;;
19521;SDS011;9905;52.126;5.596;2024-01-30T04:04:17;19.58;;;18.27;;
19521;SDS011;9905;52.126;5.596;2024-01-30T04:06:43;17.25;;;15.75;;
19521;SDS011;9905;52.126;5.596;2024-01-30T04:09:10;18.38;;;16.85;;
19521;SDS011;9905;52.126;5.596;2024-01-30T04:11:38;18.20;;;16.90;;
19521;SDS011;9905;52.126;5.596;2024-01-30T04:14:04;17.83;;;16.42;;
19521;SDS011;9905;52.126;5.596;2024-01-30T04:16:31;17.52;;;16.38;;
19521;SDS011;9905;52.126;5.596;2024-01-30T04:18:58;18.63;;;17.27;;
19521;SDS011;9905;52.126;5.596;2024-01-30T04:21:26;18.65;;;17.00;;
19521;SDS011;9905;52.126;5.596;2024-01-30T04:23:53;18.33;;;17.05;;
19521;SDS011;9905;52.126;5.596;2024-01-30T04:26:20;18.15;;;16.83;;
19521;SDS011;9905;52.126;5.596;2024-01-30T04:28:46;17.08;;;15.75;;
19521;SDS011;9905;52.126;5.596;2024-01-30T04:31:13;19.17;;;17.77;;
19521;SDS011;9905;52.126;5.596;2024-01-30T04:33:40;19.20;;;17.77;;
19521;SDS011;9905;52.126;5.596;2024-01-30T04:36:08;16.88;;;15.82;;
19521;SDS011;9905;52.126;5.596;2024-01-30T04:38:37;17.23;;;16.13;;
19521;SDS011;9905;52.126;5.596;2024-01-30T04:41:04;17.60;;;16.40;;
19521;SDS011;9905;52.126;5.596;2024-01-30T04:43:31;16.77;;;15.50;;
19521;SDS011;9905;52.126;5.596;2024-01-30T04:45:58;17.75;;;16.55;;
19521;SDS011;9905;52.126;5.596;2024-01-30T04:48:24;17.13;;;15.73;;
19521;SDS011;9905;52.126;5.596;2024-01-30T04:50:51;15.77;;;14.77;;
19521;SDS011;9905;52.126;5.596;2024-01-30T04:53:18;17.30;;;15.82;;
19521;SDS011;9905;52.126;5.596;2024-01-30T04:55:46;18.85;;;17.23;;
19521;SDS011;9905;52.126;5.596;2024-01-30T04:58:13;17.27;;;16.27;;
19521;SDS011;9905;52.126;5.596;2024-01-30T05:00:39;18.65;;;17.15;;
19521;SDS011;9905;52.126;5.596;2024-01-30T05:03:06;18.38;;;17.17;;
19521;SDS011;9905;52.126;5.596;2024-01-30T05:05:33;18.52;;;17.00;;
19521;SDS011;9905;52.126;5.596;2024-01-30T05:08:00;18.20;;;16.80;;
19521;SDS011;9905;52.126;5.596;2024-01-30T05:10:26;19.17;;;17.77;;
19521;SDS011;9905;52.126;5.596;2024-01-30T05:12:56;18.83;;;17.33;;
19521;SDS011;9905;52.126;5.596;2024-01-30T05:15:22;17.42;;;16.20;;
19521;SDS011;9905;52.126;5.596;2024-01-30T05:17:49;18.92;;;17.63;;
19521;SDS011;9905;52.126;5.596;2024-01-30T05:20:16;17.13;;;15.68;;
19521;SDS011;9905;52.126;5.596;2024-01-30T05:22:43;18.35;;;17.02;;
19521;SDS011;9905;52.126;5.596;2024-01-30T05:25:10;17.48;;;16.35;;
19521;SDS011;9905;52.126;5.596;2024-01-30T05:27:38;17.30;;;16.08;;
19521;SDS011;9905;52.126;5.596;2024-01-30T05:30:07;17.80;;;16.45;;
19521;SDS011;9905;52.126;5.596;2024-01-30T05:32:34;17.17;;;15.88;;
19521;SDS011;9905;52.126;5.596;2024-01-30T05:35:01;16.70;;;15.68;;
19521;SDS011;9905;52.126;5.596;2024-01-30T05:37:28;17.70;;;16.50;;
19521;SDS011;9905;52.126;5.596;2024-01-30T05:39:55;17.45;;;16.25;;
19521;SDS011;9905;52.126;5.596;2024-01-30T05:42:22;17.02;;;15.75;;
19521;SDS011;9905;52.126;5.596;2024-01-30T05:44:49;17.20;;;16.10;;
19521;SDS011;9905;52.126;5.596;2024-01-30T05:47:17;17.52;;;16.25;;
19521;SDS011;9905;52.126;5.596;2024-01-30T05:49:44;18.10;;;16.92;;
19521;SDS011;9905;52.126;5.596;2024-01-30T05:52:11;17.00;;;15.73;;
19521;SDS011;9905;52.126;5.596;2024-01-30T05:54:38;17.77;;;16.55;;
19521;SDS011;9905;52.126;5.596;2024-01-30T05:57:05;17.75;;;16.13;;
19521;SDS011;9905;52.126;5.596;2024-01-30T05:59:31;16.92;;;15.65;;
19521;SDS011;9905;52.126;5.596;2024-01-30T06:01:58;19.17;;;17.55;;
19521;SDS011;9905;52.126;5.596;2024-01-30T06:04:26;17.05;;;15.73;;
19521;SDS011;9905;52.126;5.596;2024-01-30T06:06:53;17.75;;;16.52;;
19521;SDS011;9905;52.126;5.596;2024-01-30T06:09:20;17.67;;;16.25;;
19521;SDS011;9905;52.126;5.596;2024-01-30T06:11:47;16.30;;;15.35;;
19521;SDS011;9905;52.126;5.596;2024-01-30T06:14:13;16.90;;;15.65;;
19521;SDS011;9905;52.126;5.596;2024-01-30T06:16:40;18.80;;;17.63;;
19521;SDS011;9905;52.126;5.596;2024-01-30T06:19:07;18.17;;;16.88;;
19521;SDS011;9905;52.126;5.596;2024-01-30T06:21:35;18.75;;;17.15;;
19521;SDS011;9905;52.126;5.596;2024-01-30T06:24:03;18.00;;;16.50;;
19521;SDS011;9905;52.126;5.596;2024-01-30T06:26:30;18.33;;;16.83;;
19521;SDS011;9905;52.126;5.596;2024-01-30T06:28:57;18.45;;;16.95;;
19521;SDS011;9905;52.126;5.596;2024-01-30T06:31:23;17.17;;;16.08;;
19521;SDS011;9905;52.126;5.596;2024-01-30T06:33:50;18.63;;;17.25;;
19521;SDS011;9905;52.126;5.596;2024-01-30T06:36:17;18.42;;;17.02;;
19521;SDS011;9905;52.126;5.596;2024-01-30T06:38:45;18.85;;;17.65;;
19521;SDS011;9905;52.126;5.596;2024-01-30T06:41:12;17.58;;;16.20;;
19521;SDS011;9905;52.126;5.596;2024-01-30T06:43:38;18.23;;;16.65;;
19521;SDS011;9905;52.126;5.596;2024-01-30T06:46:05;17.75;;;16.40;;
19521;SDS011;9905;52.126;5.596;2024-01-30T06:48:32;18.70;;;17.35;;
19521;SDS011;9905;52.126;5.596;2024-01-30T06:50:59;17.77;;;16.75;;
19521;SDS011;9905;52.126;5.596;2024-01-30T06:53:25;18.70;;;17.50;;
19521;SDS011;9905;52.126;5.596;2024-01-30T06:55:53;18.52;;;16.85;;
19521;SDS011;9905;52.126;5.596;2024-01-30T06:58:20;18.55;;;17.30;;
19521;SDS011;9905;52.126;5.596;2024-01-30T07:00:47;18.00;;;16.63;;
19521;SDS011;9905;52.126;5.596;2024-01-30T07:03:14;17.67;;;16.48;;
19521;SDS011;9905;52.126;5.596;2024-01-30T07:05:41;17.52;;;16.25;;
19521;SDS011;9905;52.126;5.596;2024-01-30T07:08:07;18.55;;;17.33;;
19521;SDS011;9905;52.126;5.596;2024-01-30T07:10:34;18.17;;;16.90;;
19521;SDS011;9905;52.126;5.596;2024-01-30T07:13:02;17.83;;;16.48;;
19521;SDS011;9905;52.126;5.596;2024-01-30T07:15:30;17.20;;;16.10;;
19521;SDS011;9905;52.126;5.596;2024-01-30T07:17:57;18.25;;;16.85;;
19521;SDS011;9905;52.126;5.596;2024-01-30T07:20:24;17.90;;;16.48;;
19521;SDS011;9905;52.126;5.596;2024-01-30T07:22:51;18.67;;;17.55;;
19521;SDS011;9905;52.126;5.596;2024-01-30T07:25:18;16.83;;;15.73;;
19521;SDS011;9905;52.126;5.596;2024-01-30T07:27:44;16.52;;;15.43;;
19521;SDS011;9905;52.126;5.596;2024-01-30T07:30:13;15.90;;;14.73;;
19521;SDS011;9905;52.126;5.596;2024-01-30T07:32:42;17.85;;;16.65;;
19521;SDS011;9905;52.126;5.596;2024-01-30T07:35:08;17.50;;;16.30;;
19521;SDS011;9905;52.126;5.596;2024-01-30T07:37:36;18.60;;;16.85;;
19521;SDS011;9905;52.126;5.596;2024-01-30T07:40:03;18.48;;;17.08;;
19521;SDS011;9905;52.126;5.596;2024-01-30T07:42:31;18.15;;;16.75;;
19521;SDS011;9905;52.126;5.596;2024-01-30T07:44:58;18.23;;;17.05;;
19521;SDS011;9905;52.126;5.596;2024-01-30T07:47:26;18.40;;;16.92;;
19521;SDS011;9905;52.126;5.596;2024-01-30T07:49:53;17.88;;;16.77;;
19521;SDS011;9905;52.126;5.596;2024-01-30T07:52:20;18.17;;;17.02;;
19521;SDS011;9905;52.126;5.596;2024-01-30T07:54:49;18.02;;;16.73;;
19521;SDS011;9905;52.126;5.596;2024-01-30T07:57:17;18.20;;;16.73;;
19521;SDS011;9905;52.126;5.596;2024-01-30T07:59:43;17.45;;;16.42;;
19521;SDS011;9905;52.126;5.596;2024-01-30T08:02:11;17.75;;;16.45;;
19521;SDS011;9905;52.126;5.596;2024-01-30T08:04:40;18.80;;;17.67;;
19521;SDS011;9905;52.126;5.596;2024-01-30T08:07:06;17.75;;;16.55;;
19521;SDS011;9905;52.126;5.596;2024-01-30T08:09:33;17.08;;;16.02;;
19521;SDS011;9905;52.126;5.596;2024-01-30T08:12:00;16.95;;;16.02;;
19521;SDS011;9905;52.126;5.596;2024-01-30T08:14:27;17.00;;;16.02;;
19521;SDS011;9905;52.126;5.596;2024-01-30T08:16:53;18.35;;;17.05;;
19521;SDS011;9905;52.126;5.596;2024-01-30T08:19:20;17.88;;;16.67;;
19521;SDS011;9905;52.126;5.596;2024-01-30T08:21:48;17.13;;;15.93;;
19521;SDS011;9905;52.126;5.596;2024-01-30T08:24:15;17.00;;;15.73;;
19521;SDS011;9905;52.126;5.596;2024-01-30T08:26:42;17.75;;;16.33;;
19521;SDS011;9905;52.126;5.596;2024-01-30T08:29:08;17.35;;;16.15;;
19521;SDS011;9905;52.126;5.596;2024-01-30T08:31:35;17.13;;;15.85;;
19521;SDS011;9905;52.126;5.596;2024-01-30T08:34:02;15.98;;;14.77;;
19521;SDS011;9905;52.126;5.596;2024-01-30T08:36:29;17.45;;;16.05;;
19521;SDS011;9905;52.126;5.596;2024-01-30T08:38:57;16.38;;;15.15;;
19521;SDS011;9905;52.126;5.596;2024-01-30T08:41:24;17.08;;;15.80;;
19521;SDS011;9905;52.126;5.596;2024-01-30T08:43:51;16.00;;;14.77;;
19521;SDS011;9905;52.126;5.596;2024-01-30T08:46:19;16.40;;;15.27;;
19521;SDS011;9905;52.126;5.596;2024-01-30T08:48:46;16.55;;;15.48;;
19521;SDS011;9905;52.126;5.596;2024-01-30T08:51:13;17.42;;;15.95;;
19521;SDS011;9905;52.126;5.596;2024-01-30T08:53:40;17.10;;;15.82;;
19521;SDS011;9905;52.126;5.596;2024-01-30T08:56:08;17.20;;;15.80;;
19521;SDS011;9905;52.126;5.596;2024-01-30T08:58:35;16.13;;;14.90;;
19521;SDS011;9905;52.126;5.596;2024-01-30T09:01:02;17.33;;;16.10;;
19521;SDS011;9905;52.126;5.596;2024-01-30T09:03:30;15.93;;;14.75;;
19521;SDS011;9905;52.126;5.596;2024-01-30T09:05:57;16.17;;;14.73;;
19521;SDS011;9905;52.126;5.596;2024-01-30T09:08:24;15.85;;;14.75;;
19521;SDS011;9905;52.126;5.596;2024-01-30T09:10:50;16.13;;;14.95;;
19521;SDS011;9905;52.126;5.596;2024-01-30T09:13:19;16.98;;;15.80;;
19521;SDS011;9905;52.126;5.596;2024-01-30T09:15:45;16.55;;;15.35;;
19521;SDS011;9905;52.126;5.596;2024-01-30T09:18:12;17.95;;;16.65;;
19521;SDS011;9905;52.126;5.596;2024-01-30T09:20:39;16.48;;;15.23;;
19521;SDS011;9905;52.126;5.596;2024-01-30T09:23:05;16.63;;;15.55;;
19521;SDS011;9905;52.126;5.596;2024-01-30T09:25:32;18.95;;;17.02;;
19521;SDS011;9905;52.126;5.596;2024-01-30T09:27:59;18.27;;;16.73;;
19521;SDS011;9905;52.126;5.596;2024-01-30T09:30:28;17.45;;;16.05;;
19521;SDS011;9905;52.126;5.596;2024-01-30T09:32:54;17.20;;;15.90;;
19521;SDS011;9905;52.126;5.596;2024-01-30T09:35:21;17.90;;;16.50;;
19521;SDS011;9905;52.126;5.596;2024-01-30T09:37:48;18.20;;;16.48;;
19521;SDS011;9905;52.126;5.596;2024-01-30T09:40:16;17.65;;;16.05;;
19521;SDS011;9905;52.126;5.596;2024-01-30T09:42:44;16.90;;;15.57;;
19521;SDS011;9905;52.126;5.596;2024-01-30T09:45:13;15.73;;;14.63;;
19521;SDS011;9905;52.126;5.596;2024-01-30T09:47:43;17.00;;;15.48;;
19521;SDS011;9905;52.126;5.596;2024-01-30T09:50:10;17.98;;;16.27;;
19521;SDS011;9905;52.126;5.596;2024-01-30T09:52:38;16.17;;;15.00;;
19521;SDS011;9905;52.126;5.596;2024-01-30T09:55:05;17.25;;;15.98;;
19521;SDS011;9905;52.126;5.596;2024-01-30T09:57:34;17.83;;;16.20;;
19521;SDS011;9905;52.126;5.596;2024-01-30T10:00:01;16.50;;;15.30;;
19521;SDS011;9905;52.126;5.596;2024-01-30T10:02:29;16.77;;;15.57;;
19521;SDS011;9905;52.126;5.596;2024-01-30T10:04:58;17.30;;;16.15;;
19521;SDS011;9905;52.126;5.596;2024-01-30T10:07:26;17.20;;;15.95;;
19521;SDS011;9905;52.126;5.596;2024-01-30T10:09:53;17.77;;;16.38;;
19521;SDS011;9905;52.126;5.596;2024-01-30T10:12:21;16.77;;;15.48;;
19521;SDS011;9905;52.126;5.596;2024-01-30T10:14:48;17.80;;;16.48;;
19521;SDS011;9905;52.126;5.596;2024-01-30T10:17:15;17.67;;;16.45;;
19521;SDS011;9905;52.126;5.596;2024-01-30T10:19:41;17.85;;;16.35;;
19521;SDS011;9905;52.126;5.596;2024-01-30T10:22:10;16.98;;;15.38;;
19521;SDS011;9905;52.126;5.596;2024-01-30T10:24:37;16.00;;;14.75;;
19521;SDS011;9905;52.126;5.596;2024-01-30T10:27:05;14.55;;;13.48;;
19521;SDS011;9905;52.126;5.596;2024-01-30T10:29:32;14.65;;;13.52;;
19521;SDS011;9905;52.126;5.596;2024-01-30T10:31:59;14.90;;;13.73;;
19521;SDS011;9905;52.126;5.596;2024-01-30T10:34:26;14.57;;;13.43;;
19521;SDS011;9905;52.126;5.596;2024-01-30T10:37:04;14.50;;;13.25;;
19521;SDS011;9905;52.126;5.596;2024-01-30T10:39:39;14.35;;;13.25;;
19521;SDS011;9905;52.126;5.596;2024-01-30T10:42:06;13.90;;;13.10;;
19521;SDS011;9905;52.126;5.596;2024-01-30T10:44:39;13.45;;;12.15;;
19521;SDS011;9905;52.126;5.596;2024-01-30T10:47:13;14.43;;;13.43;;
19521;SDS011;9905;52.126;5.596;2024-01-30T10:49:44;14.40;;;13.18;;
19521;SDS011;9905;52.126;5.596;2024-01-30T10:52:12;13.65;;;12.38;;
19521;SDS011;9905;52.126;5.596;2024-01-30T10:54:43;13.90;;;12.73;;
19521;SDS011;9905;52.126;5.596;2024-01-30T10:57:11;13.27;;;12.18;;
19521;SDS011;9905;52.126;5.596;2024-01-30T10:59:39;13.68;;;12.60;;
19521;SDS011;9905;52.126;5.596;2024-01-30T11:02:07;13.88;;;12.95;;
19521;SDS011;9905;52.126;5.596;2024-01-30T11:04:37;14.23;;;12.93;;
19521;SDS011;9905;52.126;5.596;2024-01-30T11:07:16;13.10;;;11.82;;
19521;SDS011;9905;52.126;5.596;2024-01-30T11:09:51;13.18;;;11.98;;
19521;SDS011;9905;52.126;5.596;2024-01-30T11:12:21;13.20;;;12.30;;
19521;SDS011;9905;52.126;5.596;2024-01-30T11:14:48;13.25;;;12.23;;
19521;SDS011;9905;52.126;5.596;2024-01-30T11:17:16;14.27;;;13.18;;
19521;SDS011;9905;52.126;5.596;2024-01-30T11:19:43;13.90;;;12.85;;
19521;SDS011;9905;52.126;5.596;2024-01-30T11:22:10;14.02;;;12.57;;
19521;SDS011;9905;52.126;5.596;2024-01-30T11:24:38;13.30;;;11.95;;
19521;SDS011;9905;52.126;5.596;2024-01-30T11:27:09;12.20;;;11.50;;
19521;SDS011;9905;52.126;5.596;2024-01-30T11:29:36;12.85;;;11.68;;
19521;SDS011;9905;52.126;5.596;2024-01-30T11:32:03;12.25;;;11.15;;
19521;SDS011;9905;52.126;5.596;2024-01-30T11:34:31;10.95;;;10.18;;
19521;SDS011;9905;52.126;5.596;2024-01-30T11:37:02;11.27;;;10.48;;
19521;SDS011;9905;52.126;5.596;2024-01-30T11:39:35;9.88;;;9.27;;
19521;SDS011;9905;52.126;5.596;2024-01-30T11:42:03;8.90;;;8.23;;
19521;SDS011;9905;52.126;5.596;2024-01-30T11:44:35;9.73;;;8.98;;
19521;SDS011;9905;52.126;5.596;2024-01-30T11:47:02;8.98;;;8.18;;
19521;SDS011;9905;52.126;5.596;2024-01-30T11:49:29;9.60;;;8.75;;
19521;SDS011;9905;52.126;5.596;2024-01-30T11:51:56;9.82;;;9.02;;
19521;SDS011;9905;52.126;5.596;2024-01-30T11:54:23;8.93;;;8.20;;
19521;SDS011;9905;52.126;5.596;2024-01-30T11:56:49;8.50;;;8.00;;
19521;SDS011;9905;52.126;5.596;2024-01-30T11:59:16;8.45;;;7.95;;
19521;SDS011;9905;52.126;5.596;2024-01-30T12:01:44;8.88;;;8.13;;
19521;SDS011;9905;52.126;5.596;2024-01-30T12:04:11;8.05;;;7.45;;
19521;SDS011;9905;52.126;5.596;2024-01-30T12:06:38;7.85;;;7.35;;
19521;SDS011;9905;52.126;5.596;2024-01-30T12:09:05;8.02;;;7.22;;
19521;SDS011;9905;52.126;5.596;2024-01-30T12:11:42;8.32;;;7.55;;
19521;SDS011;9905;52.126;5.596;2024-01-30T12:14:10;7.35;;;6.95;;
19521;SDS011;9905;52.126;5.596;2024-01-30T12:16:38;7.47;;;6.45;;
19521;SDS011;9905;52.126;5.596;2024-01-30T12:19:06;7.43;;;7.13;;
19521;SDS011;9905;52.126;5.596;2024-01-30T12:21:33;6.97;;;6.50;;
19521;SDS011;9905;52.126;5.596;2024-01-30T12:24:01;7.18;;;6.68;;
19521;SDS011;9905;52.126;5.596;2024-01-30T12:26:27;7.55;;;7.18;;
19521;SDS011;9905;52.126;5.596;2024-01-30T12:28:54;6.90;;;6.50;;
19521;SDS011;9905;52.126;5.596;2024-01-30T12:31:25;7.15;;;6.75;;
19521;SDS011;9905;52.126;5.596;2024-01-30T12:33:52;5.93;;;5.63;;
19521;SDS011;9905;52.126;5.596;2024-01-30T12:36:20;6.63;;;6.13;;
19521;SDS011;9905;52.126;5.596;2024-01-30T12:38:47;7.03;;;6.78;;
19521;SDS011;9905;52.126;5.596;2024-01-30T12:41:14;6.32;;;6.03;;
19521;SDS011;9905;52.126;5.596;2024-01-30T12:43:41;5.97;;;5.78;;
19521;SDS011;9905;52.126;5.596;2024-01-30T12:46:08;6.18;;;5.97;;
19521;SDS011;9905;52.126;5.596;2024-01-30T12:48:35;6.90;;;6.10;;
19521;SDS011;9905;52.126;5.596;2024-01-30T12:51:02;7.05;;;6.72;;
19521;SDS011;9905;52.126;5.596;2024-01-30T12:53:30;6.75;;;6.45;;
19521;SDS011;9905;52.126;5.596;2024-01-30T12:55:57;7.85;;;7.30;;
19521;SDS011;9905;52.126;5.596;2024-01-30T12:58:24;6.35;;;6.05;;
19521;SDS011;9905;52.126;5.596;2024-01-30T13:00:51;7.15;;;6.82;;
19521;SDS011;9905;52.126;5.596;2024-01-30T13:03:19;6.80;;;6.45;;
19521;SDS011;9905;52.126;5.596;2024-01-30T13:05:46;7.05;;;6.40;;
19521;SDS011;9905;52.126;5.596;2024-01-30T13:08:12;6.68;;;6.38;;
19521;SDS011;9905;52.126;5.596;2024-01-30T13:10:40;6.53;;;6.22;;
19521;SDS011;9905;52.126;5.596;2024-01-30T13:13:07;7.53;;;6.90;;
19521;SDS011;9905;52.126;5.596;2024-01-30T13:15:34;7.10;;;6.55;;
19521;SDS011;9905;52.126;5.596;2024-01-30T13:18:01;6.82;;;6.45;;
19521;SDS011;9905;52.126;5.596;2024-01-30T13:20:28;8.52;;;7.85;;
19521;SDS011;9905;52.126;5.596;2024-01-30T13:22:55;7.57;;;6.93;;
19521;SDS011;9905;52.126;5.596;2024-01-30T13:25:22;8.32;;;7.88;;
19521;SDS011;9905;52.126;5.596;2024-01-30T13:27:50;9.13;;;6.53;;
19521;SDS011;9905;52.126;5.596;2024-01-30T13:30:17;7.47;;;6.90;;
19521;SDS011;9905;52.126;5.596;2024-01-30T13:32:44;7.22;;;6.75;;
19521;SDS011;9905;52.126;5.596;2024-01-30T13:35:11;7.57;;;7.15;;
19521;SDS011;9905;52.126;5.596;2024-01-30T13:37:38;8.10;;;7.40;;
19521;SDS011;9905;52.126;5.596;2024-01-30T13:40:05;7.93;;;7.60;;
19521;SDS011;9905;52.126;5.596;2024-01-30T13:42:33;7.20;;;6.70;;
19521;SDS011;9905;52.126;5.596;2024-01-30T13:45:02;7.70;;;7.20;;
19521;SDS011;9905;52.126;5.596;2024-01-30T13:47:29;8.00;;;7.43;;
19521;SDS011;9905;52.126;5.596;2024-01-30T13:49:56;8.00;;;7.70;;
19521;SDS011;9905;52.126;5.596;2024-01-30T13:52:22;8.07;;;7.68;;
19521;SDS011;9905;52.126;5.596;2024-01-30T13:54:49;8.35;;;7.80;;
19521;SDS011;9905;52.126;5.596;2024-01-30T13:57:16;7.50;;;7.10;;
19521;SDS011;9905;52.126;5.596;2024-01-30T13:59:42;8.18;;;7.63;;
19521;SDS011;9905;52.126;5.596;2024-01-30T14:02:10;7.40;;;6.88;;
19521;SDS011;9905;52.126;5.596;2024-01-30T14:04:37;6.93;;;6.68;;
19521;SDS011;9905;52.126;5.596;2024-01-30T14:07:05;7.47;;;7.18;;
19521;SDS011;9905;52.126;5.596;2024-01-30T14:09:32;7.88;;;7.38;;
19521;SDS011;9905;52.126;5.596;2024-01-30T14:11:59;7.18;;;6.88;;
19521;SDS011;9905;52.126;5.596;2024-01-30T14:14:26;7.55;;;7.07;;
19521;SDS011;9905;52.126;5.596;2024-01-30T14:16:52;7.05;;;6.85;;
19521;SDS011;9905;52.126;5.596;2024-01-30T14:19:21;7.72;;;7.43;;
19521;SDS011;9905;52.126;5.596;2024-01-30T14:21:48;7.15;;;6.78;;
19521;SDS011;9905;52.126;5.596;2024-01-30T14:24:14;7.32;;;7.10;;
19521;SDS011;9905;52.126;5.596;2024-01-30T14:26:41;7.07;;;6.68;;
19521;SDS011;9905;52.126;5.596;2024-01-30T14:29:09;6.65;;;6.30;;
19521;SDS011;9905;52.126;5.596;2024-01-30T14:31:36;8.07;;;7.57;;
19521;SDS011;9905;52.126;5.596;2024-01-30T14:34:03;7.50;;;7.18;;
19521;SDS011;9905;52.126;5.596;2024-01-30T14:36:31;7.50;;;7.10;;
19521;SDS011;9905;52.126;5.596;2024-01-30T14:38:57;7.65;;;7.07;;
19521;SDS011;9905;52.126;5.596;2024-01-30T14:41:24;6.90;;;6.65;;